Airfield :
LOGIN :

Register | Disclaimer

   EN    FR    IT 

 










Legend :    VFR   Marginal VFR   IFR   Intensive IFR   Very Intensive IFR
Visi :
Ceiling :
>= 8 km
>= 3000ft
5 to 8 km
1000 to 3000 ft
1500m to 5 km
500 to 1000 ft
800 to 1500m
200 to 500 ft
< 800m
< 200 ft
Symbols :   Thunderstorms  Fog  Heavy snow  Heavy precipitations  Wind > 20 kt
SIGMETs :     Misc.  Thunderstorms  Icing  Turbulence  Mountain Waves  Volcanic Ashes







- Airport Elevation : 13 ft
- IATA code : CEQ
- Download approach charts


LFMD - Cannes Mandelieu

CURRENT METAR :
  • 221130Z AUTO VRB12G27KT CAVOK 23/05 Q1002 TEMPO 08025G35KT

EXPIRED METARs :
  • 221100Z AUTO 09014G32KT 020V170 CAVOK 23/05 Q1003 TEMPO 08025G35KT
  • 221030Z AUTO 10012G27KT 050V160 CAVOK 23/04 Q1003 TEMPO 08025G35KT
  • 221000Z AUTO 09012G27KT 030V150 CAVOK 23/03 Q1003 TEMPO 08025G35KT
  • 220930Z AUTO 10012G25KT 040V180 CAVOK 23/04 Q1003 TEMPO 08025G35KT
  • 220900Z AUTO 10011KT 040V160 CAVOK 23/04 Q1003 BECMG 09015G25KT

TAF TAF LFMD
Valid from the 22 at 09:00 until the 23 at 09:00 UTC


220800Z 2209/2309 09015G25KT CAVOK
TEMPO 2211/2218 08025G35KT
BECMG 2220/2222 08010KT RA
PROB40
TEMPO 2305/2309 4000 BKN013
ATIS : +33 4 93 48 73 23
No reported NOTAMs for that airfield.
1 SIGMET reported for the Marseille FIR (LFMM) :
 
Severe turbulence
LFMM SIGMET 5 VALID 221100/221500 LFPW
LFMM MARSEILLE FIR/UIR SEV TURB FCST WI N4515 E00700 - N4400 E00700 - N4315 E00945 - N4115 E00945 - N4115 E00800 - N4230 E00430 - N4515 E00700 SFC/FL100 STNR NC=



MET'MAP, your aeronautical weather chart ! - Copyright ORBIFLY December 2007 - Disclaimer

ORBIFLY MET'MAP TEAM :

Programming & Development : Alexandra Zaïnal
Concept & Development : Baudouin d'Aumeries
Co-Development & Prog : Marc-Olivier Méhu
Technical & hardware support : Manuel Goepfert

Contact : metmap@orbifly.com




SOURCES & CREDITS :

   NOAA